createdAt,value
2024-05-09T00:00:18.569Z,0
2024-05-09T00:01:16.007Z,0
2024-05-09T00:02:16.056Z,0
2024-05-09T00:03:16.039Z,0
2024-05-09T00:04:15.991Z,0
2024-05-09T00:05:16.067Z,0
2024-05-09T00:06:16.027Z,0
2024-05-09T00:07:15.989Z,0
2024-05-09T00:08:16.031Z,0
2024-05-09T00:09:15.991Z,0
2024-05-09T00:10:22.030Z,0
2024-05-09T00:11:16.088Z,0
2024-05-09T00:12:16.055Z,0
2024-05-09T00:13:15.994Z,0
2024-05-09T00:14:16.018Z,0
2024-05-09T00:15:15.997Z,0
2024-05-09T00:16:16.000Z,0
2024-05-09T00:17:16.059Z,0
2024-05-09T00:18:16.145Z,0
2024-05-09T00:19:16.123Z,0
2024-05-09T00:20:20.296Z,0
2024-05-09T00:21:16.018Z,0
2024-05-09T00:22:16.006Z,0
2024-05-09T00:23:16.118Z,0
2024-05-09T00:24:15.999Z,0
2024-05-09T00:25:16.011Z,0
2024-05-09T00:26:16.017Z,0
2024-05-09T00:27:16.007Z,0
2024-05-09T00:28:16.008Z,0
2024-05-09T00:29:16.041Z,0
2024-05-09T00:30:21.349Z,0
2024-05-09T00:31:16.016Z,0
2024-05-09T00:32:16.128Z,0
2024-05-09T00:33:16.330Z,0
2024-05-09T00:34:16.038Z,0
2024-05-09T00:35:16.149Z,0
2024-05-09T00:36:16.027Z,0
2024-05-09T00:37:16.012Z,0
2024-05-09T00:38:16.035Z,0
2024-05-09T00:39:16.010Z,0
2024-05-09T00:40:22.262Z,0
2024-05-09T00:41:18.003Z,0
2024-05-09T00:42:16.025Z,0
2024-05-09T00:43:16.014Z,0
2024-05-09T00:44:16.056Z,0
2024-05-09T00:45:16.019Z,0
2024-05-09T00:46:16.032Z,0
2024-05-09T00:47:16.086Z,0
2024-05-09T00:48:17.605Z,0
2024-05-09T00:49:16.079Z,0
2024-05-09T00:50:19.560Z,0
2024-05-09T00:51:16.135Z,0
2024-05-09T00:52:16.021Z,0
2024-05-09T00:53:16.105Z,0
2024-05-09T00:54:16.020Z,0
2024-05-09T00:55:16.023Z,0
2024-05-09T00:56:16.043Z,0
2024-05-09T00:57:16.022Z,0
2024-05-09T00:58:16.030Z,0
2024-05-09T00:59:16.097Z,0
2024-05-09T01:00:22.058Z,0
2024-05-09T01:01:16.098Z,0
2024-05-09T01:02:16.153Z,0
2024-05-09T01:03:16.194Z,0
2024-05-09T01:04:16.037Z,0
2024-05-09T01:05:16.080Z,0
2024-05-09T01:06:16.028Z,0
2024-05-09T01:07:16.043Z,0
2024-05-09T01:08:16.052Z,0
2024-05-09T01:09:16.035Z,0
2024-05-09T01:10:17.564Z,0
2024-05-09T01:11:16.116Z,0
2024-05-09T01:12:16.090Z,0
2024-05-09T01:13:16.040Z,0
2024-05-09T01:14:16.050Z,0
2024-05-09T01:15:16.036Z,0
2024-05-09T01:16:16.034Z,0
2024-05-09T01:17:16.103Z,0
2024-05-09T01:18:16.227Z,0
2024-05-09T01:19:16.252Z,0
2024-05-09T01:20:19.899Z,0
2024-05-09T01:21:16.142Z,0
2024-05-09T01:22:16.042Z,0
2024-05-09T01:23:16.529Z,0
2024-05-09T01:24:16.043Z,0
2024-05-09T01:25:16.051Z,0
2024-05-09T01:26:16.056Z,0
2024-05-09T01:27:16.047Z,0
2024-05-09T01:28:16.095Z,0
2024-05-09T01:29:16.097Z,0
2024-05-09T01:30:17.396Z,0
2024-05-09T01:31:16.054Z,0
2024-05-09T01:32:16.124Z,0
2024-05-09T01:33:16.151Z,0
2024-05-09T01:34:16.074Z,0
2024-05-09T01:35:16.074Z,0
2024-05-09T01:36:16.069Z,0
2024-05-09T01:37:16.064Z,0
2024-05-09T01:38:16.085Z,0
2024-05-09T01:39:16.060Z,0
2024-05-09T01:40:18.514Z,0
2024-05-09T01:41:16.090Z,0
2024-05-09T01:42:16.059Z,0
2024-05-09T01:43:16.056Z,0
2024-05-09T01:44:16.078Z,0
2024-05-09T01:45:16.058Z,0
2024-05-09T01:46:16.065Z,0
2024-05-09T01:47:16.108Z,0
2024-05-09T01:48:16.131Z,0
2024-05-09T01:49:16.115Z,0
2024-05-09T01:50:16.600Z,0
2024-05-09T01:51:16.111Z,0
2024-05-09T01:52:16.063Z,0
2024-05-09T01:53:16.089Z,0
2024-05-09T01:54:16.059Z,0
2024-05-09T01:55:16.063Z,0
2024-05-09T01:56:16.068Z,0
2024-05-09T01:57:16.061Z,0
2024-05-09T01:58:16.071Z,0
2024-05-09T01:59:16.113Z,0
2024-05-09T02:00:18.977Z,0
2024-05-09T02:01:16.173Z,0
2024-05-09T02:02:16.311Z,0
2024-05-09T02:03:17.136Z,0
2024-05-09T02:04:16.202Z,0
2024-05-09T02:05:16.334Z,0
2024-05-09T02:06:16.091Z,0
2024-05-09T02:07:16.062Z,0
2024-05-09T02:08:16.227Z,0
2024-05-09T02:09:16.069Z,0
2024-05-09T02:10:16.695Z,0
2024-05-09T02:11:16.181Z,0
2024-05-09T02:12:16.207Z,0
2024-05-09T02:13:16.412Z,0
2024-05-09T02:14:16.082Z,0
2024-05-09T02:15:16.071Z,0
2024-05-09T02:16:16.069Z,0
2024-05-09T02:17:16.221Z,0
2024-05-09T02:18:16.176Z,0
2024-05-09T02:19:16.283Z,0
2024-05-09T02:20:18.889Z,0
2024-05-09T02:21:16.162Z,0
2024-05-09T02:22:16.097Z,0
2024-05-09T02:23:16.077Z,0
2024-05-09T02:24:16.076Z,0
2024-05-09T02:25:16.077Z,0
2024-05-09T02:26:16.177Z,0
2024-05-09T02:27:16.089Z,0
2024-05-09T02:28:16.102Z,0
2024-05-09T02:29:16.104Z,0
2024-05-09T02:30:22.652Z,0
2024-05-09T02:31:16.080Z,0
2024-05-09T02:32:16.170Z,0
2024-05-09T02:33:16.200Z,0
2024-05-09T02:34:16.144Z,0
2024-05-09T02:35:16.155Z,0
2024-05-09T02:36:16.087Z,0
2024-05-09T02:37:16.096Z,0
2024-05-09T02:38:16.133Z,0
2024-05-09T02:39:16.088Z,0
2024-05-09T02:40:21.410Z,0
2024-05-09T02:41:16.173Z,0
2024-05-09T02:42:16.098Z,0
2024-05-09T02:43:16.088Z,0
2024-05-09T02:44:16.118Z,0
2024-05-09T02:45:16.092Z,0
2024-05-09T02:46:16.090Z,0
2024-05-09T02:47:16.182Z,0
2024-05-09T02:48:16.216Z,0
2024-05-09T02:49:16.179Z,0
2024-05-09T02:50:16.327Z,0
2024-05-09T02:51:16.119Z,0
2024-05-09T02:52:16.091Z,0
2024-05-09T02:53:16.165Z,0
2024-05-09T02:54:16.341Z,0
2024-05-09T02:55:16.124Z,0
2024-05-09T02:56:16.127Z,0
2024-05-09T02:57:16.105Z,0
2024-05-09T02:58:16.122Z,0
2024-05-09T02:59:16.137Z,0
2024-05-09T03:00:18.940Z,0
2024-05-09T03:01:16.157Z,0
2024-05-09T03:02:16.184Z,0
2024-05-09T03:03:16.313Z,0
2024-05-09T03:04:16.246Z,0
2024-05-09T03:05:16.204Z,0
2024-05-09T03:06:16.111Z,0
2024-05-09T03:07:17.802Z,0
2024-05-09T03:08:16.142Z,0
2024-05-09T03:09:16.125Z,0
2024-05-09T03:10:18.568Z,0
2024-05-09T03:11:16.231Z,0
2024-05-09T03:12:16.152Z,0
2024-05-09T03:13:16.422Z,0
2024-05-09T03:14:16.194Z,0
2024-05-09T03:15:16.122Z,0
2024-05-09T03:16:16.114Z,0
2024-05-09T03:17:16.176Z,0
2024-05-09T03:18:16.244Z,0
2024-05-09T03:19:16.317Z,0
2024-05-09T03:20:20.380Z,0
2024-05-09T03:21:16.133Z,0
2024-05-09T03:22:16.121Z,0
2024-05-09T03:23:16.205Z,0
2024-05-09T03:24:16.125Z,0
2024-05-09T03:25:16.129Z,0
2024-05-09T03:26:16.241Z,0
2024-05-09T03:27:16.128Z,2
2024-05-09T03:28:16.133Z,2
2024-05-09T03:29:16.166Z,2
2024-05-09T03:30:25.489Z,2
2024-05-09T03:31:16.134Z,2
2024-05-09T03:32:16.210Z,4
2024-05-09T03:33:16.339Z,4
2024-05-09T03:34:16.188Z,4
2024-05-09T03:35:16.151Z,4
2024-05-09T03:36:16.140Z,4
2024-05-09T03:37:16.139Z,7
2024-05-09T03:38:16.310Z,7
2024-05-09T03:39:16.195Z,7
2024-05-09T03:40:20.684Z,7
2024-05-09T03:41:16.187Z,7
2024-05-09T03:42:16.165Z,11
2024-05-09T03:43:16.163Z,11
2024-05-09T03:44:16.156Z,11
2024-05-09T03:45:16.141Z,11
2024-05-09T03:46:16.154Z,11
2024-05-09T03:47:16.206Z,16
2024-05-09T03:48:16.360Z,16
2024-05-09T03:49:16.281Z,16
2024-05-09T03:50:18.403Z,16
2024-05-09T03:51:16.179Z,16
2024-05-09T03:52:16.155Z,21
2024-05-09T03:53:16.312Z,21
2024-05-09T03:54:16.151Z,21
2024-05-09T03:55:16.152Z,21
2024-05-09T03:56:16.178Z,21
2024-05-09T03:57:16.154Z,23
2024-05-09T03:58:16.177Z,23
2024-05-09T03:59:16.168Z,23
2024-05-09T04:00:18.045Z,23
2024-05-09T04:01:16.202Z,23
2024-05-09T04:02:16.230Z,31
2024-05-09T04:03:16.509Z,31
2024-05-09T04:04:16.215Z,31
2024-05-09T04:05:16.172Z,31
2024-05-09T04:06:16.153Z,31
2024-05-09T04:07:16.166Z,41
2024-05-09T04:08:16.209Z,41
2024-05-09T04:09:16.160Z,41
2024-05-09T04:10:20.996Z,41
2024-05-09T04:11:16.199Z,41
2024-05-09T04:12:16.196Z,61
2024-05-09T04:13:16.172Z,61
2024-05-09T04:14:16.204Z,61
2024-05-09T04:15:16.159Z,61
2024-05-09T04:16:16.179Z,61
2024-05-09T04:17:16.174Z,66
2024-05-09T04:18:16.287Z,66
2024-05-09T04:19:16.334Z,66
2024-05-09T04:20:24.096Z,66
2024-05-09T04:21:16.191Z,66
2024-05-09T04:22:16.164Z,67
2024-05-09T04:23:16.195Z,67
2024-05-09T04:24:16.164Z,67
2024-05-09T04:25:16.178Z,67
2024-05-09T04:26:16.227Z,67
2024-05-09T04:27:16.175Z,87
2024-05-09T04:28:16.169Z,87
2024-05-09T04:29:16.177Z,87
2024-05-09T04:30:21.468Z,87
2024-05-09T04:31:16.169Z,87
2024-05-09T04:32:16.198Z,95
2024-05-09T04:33:16.308Z,95
2024-05-09T04:34:16.362Z,95
2024-05-09T04:35:16.198Z,95
2024-05-09T04:36:16.179Z,95
2024-05-09T04:37:16.180Z,101
2024-05-09T04:38:16.323Z,101
2024-05-09T04:39:16.183Z,101
2024-05-09T04:40:20.913Z,101
2024-05-09T04:41:16.198Z,101
2024-05-09T04:42:16.182Z,114
2024-05-09T04:43:16.260Z,114
2024-05-09T04:44:16.280Z,114
2024-05-09T04:45:16.201Z,114
2024-05-09T04:46:16.198Z,114
2024-05-09T04:47:16.244Z,116
2024-05-09T04:48:16.487Z,116
2024-05-09T04:49:16.333Z,116
2024-05-09T04:50:20.831Z,116
2024-05-09T04:51:16.281Z,116
2024-05-09T04:52:16.190Z,129
2024-05-09T04:53:16.304Z,129
2024-05-09T04:54:25.702Z,129
2024-05-09T04:55:16.207Z,129
2024-05-09T04:56:16.227Z,129
2024-05-09T04:57:16.192Z,142
2024-05-09T04:58:16.193Z,142
2024-05-09T04:59:16.207Z,142
2024-05-09T05:00:21.453Z,142
2024-05-09T05:01:16.257Z,142
2024-05-09T05:02:16.259Z,152
2024-05-09T05:03:16.739Z,152
2024-05-09T05:04:16.322Z,152
2024-05-09T05:05:16.311Z,152
2024-05-09T05:06:16.198Z,152
2024-05-09T05:07:16.201Z,160
2024-05-09T05:08:16.840Z,160
2024-05-09T05:09:16.204Z,160
2024-05-09T05:10:21.373Z,160
2024-05-09T05:11:16.263Z,160
2024-05-09T05:12:16.287Z,195
2024-05-09T05:13:16.211Z,195
2024-05-09T05:14:16.242Z,195
2024-05-09T05:15:16.215Z,195
2024-05-09T05:16:16.199Z,195
2024-05-09T05:17:16.226Z,269
2024-05-09T05:18:16.579Z,269
2024-05-09T05:19:17.609Z,269
2024-05-09T05:20:21.273Z,269
2024-05-09T05:21:16.238Z,269
2024-05-09T05:22:16.207Z,323
2024-05-09T05:23:16.551Z,323
2024-05-09T05:24:16.212Z,323
2024-05-09T05:25:16.214Z,323
2024-05-09T05:26:16.247Z,323
2024-05-09T05:27:16.217Z,400
2024-05-09T05:28:16.211Z,400
2024-05-09T05:29:17.783Z,400
2024-05-09T05:30:20.782Z,400
2024-05-09T05:31:16.248Z,400
2024-05-09T05:32:16.373Z,502
2024-05-09T05:33:16.368Z,502
2024-05-09T05:34:16.239Z,502
2024-05-09T05:35:16.250Z,502
2024-05-09T05:36:16.234Z,502
2024-05-09T05:37:16.221Z,541
2024-05-09T05:38:16.280Z,541
2024-05-09T05:39:16.223Z,541
2024-05-09T05:40:24.585Z,541
2024-05-09T05:41:16.242Z,541
2024-05-09T05:42:16.230Z,516
2024-05-09T05:43:16.242Z,516
2024-05-09T05:44:16.284Z,516
2024-05-09T05:45:16.234Z,516
2024-05-09T05:46:16.238Z,516
2024-05-09T05:47:16.329Z,568
2024-05-09T05:48:16.942Z,568
2024-05-09T05:49:16.372Z,568
2024-05-09T05:50:20.946Z,568
2024-05-09T05:51:16.333Z,568
2024-05-09T05:52:16.230Z,590
2024-05-09T05:53:16.343Z,590
2024-05-09T05:54:16.238Z,590
2024-05-09T05:55:16.262Z,590
2024-05-09T05:56:16.318Z,590
2024-05-09T05:57:16.249Z,616
2024-05-09T05:58:16.249Z,616
2024-05-09T05:59:16.326Z,616
2024-05-09T06:00:21.954Z,616
2024-05-09T06:01:16.256Z,616
2024-05-09T06:02:16.307Z,665
2024-05-09T06:03:16.414Z,665
2024-05-09T06:04:16.284Z,665
2024-05-09T06:05:16.273Z,665
2024-05-09T06:06:16.271Z,665
2024-05-09T06:07:16.245Z,750
2024-05-09T06:08:16.290Z,750
2024-05-09T06:09:16.261Z,750
2024-05-09T06:10:17.622Z,750
2024-05-09T06:11:16.301Z,750
2024-05-09T06:12:16.313Z,790
2024-05-09T06:13:16.256Z,790
2024-05-09T06:14:16.264Z,790
2024-05-09T06:15:16.253Z,790
2024-05-09T06:16:16.256Z,790
2024-05-09T06:17:16.309Z,777
2024-05-09T06:18:16.338Z,777
2024-05-09T06:19:16.327Z,777
2024-05-09T06:20:20.071Z,777
2024-05-09T06:21:16.390Z,777
2024-05-09T06:22:16.275Z,792
2024-05-09T06:23:16.286Z,792
2024-05-09T06:24:16.259Z,792
2024-05-09T06:25:16.272Z,792
2024-05-09T06:26:16.298Z,792
2024-05-09T06:27:16.260Z,924
2024-05-09T06:28:16.278Z,924
2024-05-09T06:29:16.369Z,924
2024-05-09T06:30:21.327Z,924
2024-05-09T06:31:16.263Z,924
2024-05-09T06:32:16.405Z,1062
2024-05-09T06:33:16.787Z,1062
2024-05-09T06:34:16.438Z,1062
2024-05-09T06:35:16.288Z,1062
2024-05-09T06:36:16.269Z,1062
2024-05-09T06:37:16.273Z,1105
2024-05-09T06:38:16.337Z,1105
2024-05-09T06:39:16.264Z,1105
2024-05-09T06:40:17.800Z,1105
2024-05-09T06:41:16.294Z,1105
2024-05-09T06:42:16.265Z,1170
2024-05-09T06:43:17.305Z,1170
2024-05-09T06:44:16.320Z,1170
2024-05-09T06:45:16.267Z,1170
2024-05-09T06:46:16.274Z,1170
2024-05-09T06:47:16.295Z,1198
2024-05-09T06:48:16.388Z,1198
2024-05-09T06:49:16.398Z,1198
2024-05-09T06:50:20.108Z,1198
2024-05-09T06:51:16.306Z,1198
2024-05-09T06:52:16.269Z,1289
2024-05-09T06:53:16.394Z,1289
2024-05-09T06:54:16.297Z,1289
2024-05-09T06:55:16.272Z,1289
2024-05-09T06:56:16.391Z,1289
2024-05-09T06:57:16.276Z,1369
2024-05-09T06:58:16.271Z,1369
2024-05-09T06:59:16.288Z,1369
2024-05-09T07:00:22.435Z,1369
2024-05-09T07:01:16.298Z,1369
2024-05-09T07:02:16.348Z,1446
2024-05-09T07:03:17.420Z,1446
2024-05-09T07:04:16.337Z,1446
2024-05-09T07:05:16.348Z,1446
2024-05-09T07:06:16.298Z,1446
2024-05-09T07:07:16.283Z,1566
2024-05-09T07:08:16.468Z,1566
2024-05-09T07:09:16.291Z,1566
2024-05-09T07:10:21.497Z,1566
2024-05-09T07:11:16.379Z,1566
2024-05-09T07:12:16.401Z,1566
2024-05-09T07:13:16.281Z,1566
2024-05-09T07:14:16.292Z,1566
2024-05-09T07:15:16.292Z,1566
2024-05-09T07:16:16.370Z,1566
2024-05-09T07:17:16.336Z,1566
2024-05-09T07:18:17.338Z,1566
2024-05-09T07:19:16.426Z,1566
2024-05-09T07:20:20.177Z,1566
2024-05-09T07:21:16.323Z,1566
2024-05-09T07:22:16.288Z,1553
2024-05-09T07:23:16.578Z,1553
2024-05-09T07:24:16.298Z,1553
2024-05-09T07:25:16.294Z,1553
2024-05-09T07:26:16.422Z,1553
2024-05-09T07:27:16.292Z,1632
2024-05-09T07:28:16.399Z,1632
2024-05-09T07:29:16.398Z,1632
2024-05-09T07:30:20.062Z,1632
2024-05-09T07:31:16.292Z,1632
2024-05-09T07:32:16.370Z,1665
2024-05-09T07:33:16.475Z,1665
2024-05-09T07:34:16.469Z,1665
2024-05-09T07:35:16.435Z,1665
2024-05-09T07:36:16.350Z,1665
2024-05-09T07:37:16.297Z,1802
2024-05-09T07:38:16.326Z,1802
2024-05-09T07:39:16.295Z,1802
2024-05-09T07:40:24.144Z,1802
2024-05-09T07:41:16.313Z,1802
2024-05-09T07:42:16.317Z,1879
2024-05-09T07:43:16.541Z,1879
2024-05-09T07:44:16.314Z,1879
2024-05-09T07:45:29.482Z,1879
2024-05-09T07:46:45.606Z,1879
2024-05-09T07:47:49.005Z,1976
2024-05-09T07:49:11.869Z,1976
2024-05-09T07:50:33.222Z,1976
2024-05-09T07:53:08.015Z,2142
2024-05-09T07:53:33.522Z,2142
2024-05-09T07:54:16.420Z,2142
2024-05-09T07:55:16.429Z,2142
2024-05-09T07:56:16.605Z,2142
2024-05-09T07:57:16.406Z,2155
2024-05-09T07:58:16.325Z,2155
2024-05-09T07:59:16.318Z,2155
2024-05-09T08:00:20.099Z,2155
2024-05-09T08:01:16.424Z,2155
2024-05-09T08:02:16.376Z,2220
2024-05-09T08:03:16.425Z,2220
2024-05-09T08:04:16.383Z,2220
2024-05-09T08:05:16.425Z,2220
2024-05-09T08:06:16.321Z,2220
2024-05-09T08:07:16.382Z,2445
2024-05-09T08:08:16.321Z,2445
2024-05-09T08:09:19.580Z,2445
2024-05-09T08:10:21.804Z,2445
2024-05-09T08:11:16.373Z,2445
2024-05-09T08:12:16.325Z,3117
2024-05-09T08:13:16.352Z,3117
2024-05-09T08:14:16.345Z,3117
2024-05-09T08:15:16.331Z,3117
2024-05-09T08:16:16.389Z,3117
2024-05-09T08:17:16.469Z,4540
2024-05-09T08:18:16.444Z,4540
2024-05-09T08:19:16.397Z,4540
2024-05-09T08:20:22.777Z,4540
2024-05-09T08:21:16.328Z,4540
2024-05-09T08:22:16.334Z,5692
2024-05-09T08:23:16.323Z,5692
2024-05-09T08:24:16.340Z,5692
2024-05-09T08:25:16.386Z,5692
2024-05-09T08:26:16.347Z,5692
2024-05-09T08:27:16.346Z,3857
2024-05-09T08:28:16.556Z,3857
2024-05-09T08:29:16.337Z,3857
2024-05-09T08:30:21.501Z,3857
2024-05-09T08:31:16.427Z,3857
2024-05-09T08:32:16.349Z,3579
2024-05-09T08:33:16.463Z,3579
2024-05-09T08:34:16.589Z,3579
2024-05-09T08:35:16.340Z,3579
2024-05-09T08:36:16.354Z,3579
2024-05-09T08:37:21.372Z,3237
2024-05-09T08:38:16.349Z,3237
2024-05-09T08:39:16.342Z,3237
2024-05-09T08:40:19.796Z,3237
2024-05-09T08:41:16.345Z,3237
2024-05-09T08:42:16.377Z,3502
2024-05-09T08:43:16.447Z,3502
2024-05-09T08:44:16.349Z,3502
2024-05-09T08:45:16.353Z,3502
2024-05-09T08:46:16.417Z,3502
2024-05-09T08:47:16.378Z,4198
2024-05-09T08:48:16.734Z,4198
2024-05-09T08:49:16.450Z,4198
2024-05-09T08:50:23.863Z,4198
2024-05-09T08:51:16.362Z,4198
2024-05-09T08:52:16.373Z,5266
2024-05-09T08:53:16.360Z,5266
2024-05-09T08:54:16.356Z,5266
2024-05-09T08:55:16.371Z,5266
2024-05-09T08:56:16.370Z,5266
2024-05-09T08:57:16.360Z,6838
2024-05-09T08:58:16.669Z,6838
2024-05-09T08:59:16.367Z,6838
2024-05-09T09:00:21.447Z,6838
2024-05-09T09:01:16.444Z,6838
2024-05-09T09:02:16.532Z,6762
2024-05-09T09:03:16.374Z,6762
2024-05-09T09:04:16.538Z,6762
2024-05-09T09:05:16.553Z,6762
2024-05-09T09:06:16.377Z,6762
2024-05-09T09:07:16.414Z,6399
2024-05-09T09:08:16.378Z,6399
2024-05-09T09:09:16.377Z,6399
2024-05-09T09:10:24.859Z,6399
2024-05-09T09:11:16.410Z,6399
2024-05-09T09:12:16.381Z,6288
2024-05-09T09:13:16.446Z,6288
2024-05-09T09:14:16.379Z,6288
2024-05-09T09:15:16.384Z,6288
2024-05-09T09:16:16.422Z,6288
2024-05-09T09:17:16.474Z,5868
2024-05-09T09:18:16.586Z,5868
2024-05-09T09:19:16.490Z,5868
2024-05-09T09:20:19.247Z,5868
2024-05-09T09:21:16.391Z,5868
2024-05-09T09:22:16.391Z,6046
2024-05-09T09:23:16.398Z,6046
2024-05-09T09:24:16.398Z,6046
2024-05-09T09:25:16.438Z,6046
2024-05-09T09:26:16.407Z,6046
2024-05-09T09:27:16.393Z,6131
2024-05-09T09:28:16.455Z,6131
2024-05-09T09:29:16.393Z,6131
2024-05-09T09:30:26.836Z,6131
2024-05-09T09:31:16.420Z,6131
2024-05-09T09:32:16.424Z,6009
2024-05-09T09:33:16.493Z,6009
2024-05-09T09:34:16.530Z,6009
2024-05-09T09:35:16.424Z,6009
2024-05-09T09:36:16.400Z,6009
2024-05-09T09:37:16.421Z,5968
2024-05-09T09:38:16.401Z,5968
2024-05-09T09:39:16.399Z,5968
2024-05-09T09:40:18.302Z,5968
2024-05-09T09:41:16.410Z,5968
2024-05-09T09:42:16.397Z,6087
2024-05-09T09:43:16.452Z,6087
2024-05-09T09:44:16.401Z,6087
2024-05-09T09:45:16.406Z,6087
2024-05-09T09:46:16.538Z,6087
2024-05-09T09:47:16.470Z,5277
2024-05-09T09:48:16.546Z,5277
2024-05-09T09:49:16.582Z,5277
2024-05-09T09:50:17.059Z,5277
2024-05-09T09:51:16.425Z,5277
2024-05-09T09:52:16.455Z,5991
2024-05-09T09:53:16.437Z,5991
2024-05-09T09:54:16.412Z,5991
2024-05-09T09:55:16.511Z,5991
2024-05-09T09:56:16.412Z,6567
2024-05-09T09:57:16.421Z,6567
2024-05-09T09:58:16.521Z,6567
2024-05-09T09:59:16.413Z,6567
2024-05-09T10:01:16.515Z,3253
2024-05-09T10:02:16.533Z,3253
2024-05-09T10:03:16.424Z,3253
2024-05-09T10:04:16.454Z,3253
2024-05-09T10:05:16.464Z,3253
2024-05-09T10:06:16.441Z,2254
2024-05-09T10:07:16.434Z,2254
2024-05-09T10:08:16.435Z,2254
2024-05-09T10:09:16.422Z,2254
2024-05-09T10:10:20.021Z,2254
2024-05-09T10:11:16.446Z,2241
2024-05-09T10:12:16.439Z,2241
2024-05-09T10:13:16.546Z,2241
2024-05-09T10:14:16.425Z,2241
2024-05-09T10:15:16.424Z,2241
2024-05-09T10:16:16.444Z,2352
2024-05-09T10:17:16.428Z,2352
2024-05-09T10:18:16.679Z,2352
2024-05-09T10:19:16.505Z,2352
2024-05-09T10:20:21.288Z,2352
2024-05-09T10:21:16.445Z,2392
2024-05-09T10:22:16.477Z,2392
2024-05-09T10:23:16.453Z,2392
2024-05-09T10:24:16.439Z,2392
2024-05-09T10:25:16.475Z,2392
2024-05-09T10:26:16.446Z,2259
2024-05-09T10:27:16.441Z,2259
2024-05-09T10:28:16.488Z,2259
2024-05-09T10:29:16.442Z,2259
2024-05-09T10:30:21.463Z,2259
2024-05-09T10:31:16.638Z,2232
2024-05-09T10:32:16.469Z,2232
2024-05-09T10:33:16.540Z,2232
2024-05-09T10:34:16.554Z,2232
2024-05-09T10:35:16.445Z,2232
2024-05-09T10:36:16.445Z,1992
2024-05-09T10:37:16.519Z,1992
2024-05-09T10:38:16.467Z,1992
2024-05-09T10:39:16.448Z,1992
2024-05-09T10:40:20.246Z,1992
2024-05-09T10:41:16.452Z,2026
2024-05-09T10:42:16.447Z,2026
2024-05-09T10:43:16.598Z,2026
2024-05-09T10:44:16.467Z,2026
2024-05-09T10:45:16.454Z,2026
2024-05-09T10:46:16.768Z,2090
2024-05-09T10:47:16.475Z,2090
2024-05-09T10:48:16.514Z,2090
2024-05-09T10:49:16.535Z,2090
2024-05-09T10:50:21.937Z,2090
2024-05-09T10:51:16.454Z,2313
2024-05-09T10:52:16.538Z,2313
2024-05-09T10:53:16.463Z,2313
2024-05-09T10:54:16.476Z,2313
2024-05-09T10:55:16.491Z,2313
2024-05-09T10:56:16.574Z,2553
2024-05-09T10:57:16.464Z,2553
2024-05-09T10:58:16.481Z,2553
2024-05-09T10:59:16.471Z,2553
2024-05-09T11:00:23.045Z,2553
2024-05-09T11:01:16.549Z,2957
2024-05-09T11:02:16.559Z,2957
2024-05-09T11:03:16.524Z,2957
2024-05-09T11:04:16.754Z,2957
2024-05-09T11:05:16.592Z,2957
2024-05-09T11:06:16.477Z,2933
2024-05-09T11:07:16.526Z,2933
2024-05-09T11:08:16.476Z,2933
2024-05-09T11:09:16.480Z,2933
2024-05-09T11:10:20.659Z,2933
2024-05-09T11:11:16.511Z,3005
2024-05-09T11:12:16.478Z,3005
2024-05-09T11:13:16.524Z,3005
2024-05-09T11:14:16.496Z,3005
2024-05-09T11:15:16.500Z,3005
2024-05-09T11:16:16.669Z,2985
2024-05-09T11:17:16.498Z,2985
2024-05-09T11:18:16.811Z,2985
2024-05-09T11:19:16.577Z,2985
2024-05-09T11:20:19.805Z,2985
2024-05-09T11:21:16.495Z,2759
2024-05-09T11:22:16.571Z,2759
2024-05-09T11:23:16.489Z,2759
2024-05-09T11:24:16.496Z,2759
2024-05-09T11:25:16.545Z,2759
2024-05-09T11:26:16.502Z,2793
2024-05-09T11:27:16.491Z,2793
2024-05-09T11:28:16.524Z,2793
2024-05-09T11:29:18.656Z,2793
2024-05-09T11:30:21.029Z,2793
2024-05-09T11:31:16.522Z,2759
2024-05-09T11:32:16.653Z,2759
2024-05-09T11:33:16.543Z,2759
2024-05-09T11:34:16.682Z,2759
2024-05-09T11:35:16.529Z,2759
2024-05-09T11:36:16.506Z,2663
2024-05-09T11:37:16.567Z,2663
2024-05-09T11:38:16.505Z,2663
2024-05-09T11:39:16.552Z,2663
2024-05-09T11:40:20.707Z,2663
2024-05-09T11:41:16.505Z,2809
2024-05-09T11:42:16.697Z,2809
2024-05-09T11:43:16.745Z,2809
2024-05-09T11:44:16.507Z,2809
2024-05-09T11:45:16.561Z,2809
2024-05-09T11:46:16.693Z,5830
2024-05-09T11:47:16.563Z,5830
2024-05-09T11:48:16.583Z,5830
2024-05-09T11:49:16.666Z,5830
2024-05-09T11:50:22.372Z,5830
2024-05-09T11:51:16.520Z,5830
2024-05-09T11:52:16.550Z,5830
2024-05-09T11:53:16.538Z,5830
2024-05-09T11:54:16.525Z,5830
2024-05-09T11:55:16.804Z,5830
2024-05-09T11:56:16.518Z,6017
2024-05-09T11:57:16.550Z,6017
2024-05-09T11:58:16.588Z,6017
2024-05-09T11:59:16.536Z,6017
2024-05-09T12:00:20.674Z,6017
2024-05-09T12:01:16.559Z,6066
2024-05-09T12:02:16.880Z,6066
2024-05-09T12:03:16.612Z,6066
2024-05-09T12:04:16.745Z,6066
2024-05-09T12:05:16.725Z,6066
2024-05-09T12:06:16.686Z,2419
2024-05-09T12:07:16.621Z,2419
2024-05-09T12:08:16.675Z,2419
2024-05-09T12:09:16.530Z,2419
2024-05-09T12:10:19.276Z,2419
2024-05-09T12:11:16.845Z,2354
2024-05-09T12:12:16.535Z,2354
2024-05-09T12:13:16.708Z,2354
2024-05-09T12:14:16.538Z,2354
2024-05-09T12:15:16.692Z,2354
2024-05-09T12:16:16.790Z,2103
2024-05-09T12:17:16.580Z,2103
2024-05-09T12:18:16.650Z,2103
2024-05-09T12:19:16.583Z,2103
2024-05-09T12:20:20.898Z,2103
2024-05-09T12:21:16.531Z,1933
2024-05-09T12:22:16.677Z,1933
2024-05-09T12:23:16.532Z,1933
2024-05-09T12:24:18.403Z,1933
2024-05-09T12:25:16.777Z,1933
2024-05-09T12:26:16.549Z,1902
2024-05-09T12:27:16.536Z,1902
2024-05-09T12:28:16.746Z,1902
2024-05-09T12:29:16.546Z,1902
2024-05-09T12:31:16.618Z,1876
2024-05-09T12:32:16.687Z,1876
2024-05-09T12:33:16.664Z,1876
2024-05-09T12:34:16.684Z,1876
2024-05-09T12:35:16.608Z,1876
2024-05-09T12:36:16.539Z,1788
2024-05-09T12:37:16.709Z,1788
2024-05-09T12:38:16.571Z,1788
2024-05-09T12:39:16.544Z,1788
2024-05-09T12:40:22.430Z,1788
2024-05-09T12:41:16.592Z,1714
2024-05-09T12:42:22.637Z,1714
2024-05-09T12:43:16.546Z,1714
2024-05-09T12:44:16.547Z,1714
2024-05-09T12:45:16.548Z,1714
2024-05-09T12:46:16.703Z,1738
2024-05-09T12:47:16.689Z,1738
2024-05-09T12:48:16.792Z,1738
2024-05-09T12:49:18.673Z,1738
2024-05-09T12:50:22.200Z,1738
2024-05-09T12:51:16.544Z,1762
2024-05-09T12:52:16.746Z,1762
2024-05-09T12:53:16.673Z,1762
2024-05-09T12:54:16.577Z,1762
2024-05-09T12:55:16.821Z,1762
2024-05-09T12:56:16.559Z,1790
2024-05-09T12:57:16.563Z,1790
2024-05-09T12:58:16.936Z,1790
2024-05-09T12:59:16.576Z,1790
2024-05-09T13:00:20.633Z,1790
2024-05-09T13:01:16.662Z,2144
2024-05-09T13:02:16.857Z,2144
2024-05-09T13:03:16.748Z,2144
2024-05-09T13:04:16.720Z,2144
2024-05-09T13:05:16.688Z,2144
2024-05-09T13:06:16.679Z,5424
2024-05-09T13:07:16.603Z,5424
2024-05-09T13:08:16.557Z,5424
2024-05-09T13:09:16.586Z,5424
2024-05-09T13:10:22.951Z,5424
2024-05-09T13:11:16.685Z,5444
2024-05-09T13:12:16.577Z,5444
2024-05-09T13:13:16.900Z,5444
2024-05-09T13:14:16.591Z,5444
2024-05-09T13:15:16.606Z,5444
2024-05-09T13:16:16.696Z,4899
2024-05-09T13:17:16.746Z,4899
2024-05-09T13:18:16.708Z,4899
2024-05-09T13:19:16.634Z,4899
2024-05-09T13:20:22.568Z,4899
2024-05-09T13:21:16.558Z,3016
2024-05-09T13:22:16.618Z,3016
2024-05-09T13:23:16.686Z,3016
2024-05-09T13:24:16.582Z,3016
2024-05-09T13:25:16.592Z,3016
2024-05-09T13:26:16.567Z,5238
2024-05-09T13:27:16.630Z,5238
2024-05-09T13:28:16.818Z,5238
2024-05-09T13:29:16.603Z,5238
2024-05-09T13:30:21.695Z,5238
2024-05-09T13:31:16.623Z,5193
2024-05-09T13:32:16.682Z,5193
2024-05-09T13:33:16.712Z,5193
2024-05-09T13:34:16.742Z,5193
2024-05-09T13:35:16.765Z,5193
2024-05-09T13:36:16.681Z,5175
2024-05-09T13:37:16.577Z,5175
2024-05-09T13:38:16.680Z,5175
2024-05-09T13:39:16.721Z,5175
2024-05-09T13:40:19.661Z,5175
2024-05-09T13:41:16.698Z,4634
2024-05-09T13:42:16.586Z,4634
2024-05-09T13:43:16.629Z,4634
2024-05-09T13:44:16.579Z,4634
2024-05-09T13:45:16.579Z,4634
2024-05-09T13:46:16.646Z,3478
2024-05-09T13:47:16.585Z,3478
2024-05-09T13:48:16.675Z,3478
2024-05-09T13:49:16.887Z,3478
2024-05-09T13:50:23.144Z,3478
2024-05-09T13:51:16.586Z,4588
2024-05-09T13:52:16.612Z,4588